createdAt,value
2022-08-08T00:01:12.110Z,15.80
2022-08-08T00:03:59.379Z,15.80
2022-08-08T00:06:45.128Z,15.80
2022-08-08T00:09:22.191Z,15.70
2022-08-08T00:12:09.518Z,15.60
2022-08-08T00:14:59.652Z,15.60
2022-08-08T00:17:58.571Z,15.60
2022-08-08T00:20:39.830Z,15.50
2022-08-08T00:23:18.163Z,15.50
2022-08-08T00:25:51.810Z,15.50
2022-08-08T00:28:36.972Z,15.40
2022-08-08T00:32:16.108Z,15.40
2022-08-08T00:34:46.220Z,15.30
2022-08-08T00:37:47.624Z,15.30
2022-08-08T00:41:06.721Z,15.30
2022-08-08T00:44:20.156Z,15.20
2022-08-08T00:48:01.374Z,15.20
2022-08-08T00:51:03.094Z,15.10
2022-08-08T00:54:16.001Z,15.10
2022-08-08T00:57:19.563Z,15.10
2022-08-08T01:00:17.348Z,15.10
2022-08-08T01:03:59.582Z,15.10
2022-08-08T01:07:05.960Z,15.10
2022-08-08T01:10:08.255Z,15.10
2022-08-08T01:13:43.767Z,15.10
2022-08-08T01:16:51.140Z,15.10
2022-08-08T01:20:02.636Z,15.00
2022-08-08T01:24:03.133Z,15.00
2022-08-08T01:26:28.470Z,15.00
2022-08-08T01:29:24.205Z,15.00
2022-08-08T01:32:32.412Z,14.90
2022-08-08T01:35:40.717Z,15.00
2022-08-08T01:38:53.095Z,14.90
2022-08-08T01:41:34.085Z,14.90
2022-08-08T01:44:19.427Z,14.90
2022-08-08T01:46:58.531Z,14.90
2022-08-08T01:49:57.263Z,14.80
2022-08-08T01:53:55.322Z,14.80
2022-08-08T01:56:29.645Z,14.70
2022-08-08T01:58:46.997Z,14.70
2022-08-08T02:01:54.586Z,14.70
2022-08-08T02:04:32.412Z,14.60
2022-08-08T02:07:13.743Z,14.60
2022-08-08T02:10:04.347Z,14.50
2022-08-08T02:12:56.268Z,14.50
2022-08-08T02:15:34.603Z,14.50
2022-08-08T02:18:22.226Z,14.50
2022-08-08T02:21:18.311Z,14.50
2022-08-08T02:24:01.256Z,14.50
2022-08-08T02:26:38.987Z,14.50
2022-08-08T02:29:41.405Z,14.40
2022-08-08T02:32:46.019Z,14.40
2022-08-08T02:36:06.267Z,14.40
2022-08-08T02:39:01.076Z,14.30
2022-08-08T02:42:04.112Z,14.10
2022-08-08T02:45:18.608Z,14.10
2022-08-08T02:48:42.850Z,14.00
2022-08-08T02:51:56.783Z,14.00
2022-08-08T02:55:19.791Z,13.90
2022-08-08T02:58:27.309Z,13.80
2022-08-08T03:01:50.367Z,13.80
2022-08-08T03:05:22.294Z,13.70
2022-08-08T03:08:42.300Z,13.70
2022-08-08T03:12:03.082Z,13.70
2022-08-08T03:16:02.085Z,13.60
2022-08-08T03:18:15.616Z,13.60
2022-08-08T03:21:10.121Z,13.60
2022-08-08T03:24:00.042Z,13.50
2022-08-08T03:26:42.720Z,13.60
2022-08-08T03:29:18.771Z,13.60
2022-08-08T03:32:13.302Z,13.60
2022-08-08T03:34:42.573Z,13.60
2022-08-08T03:37:59.574Z,13.60
2022-08-08T03:40:18.352Z,13.50
2022-08-08T03:43:16.686Z,13.50
2022-08-08T03:46:05.357Z,13.50
2022-08-08T03:49:38.154Z,13.50
2022-08-08T03:51:47.072Z,13.50
2022-08-08T03:54:40.689Z,13.40
2022-08-08T03:58:34.407Z,13.40
2022-08-08T04:00:11.244Z,13.40
2022-08-08T04:02:47.557Z,13.40
2022-08-08T04:05:28.905Z,13.40
2022-08-08T04:07:58.353Z,13.40
2022-08-08T04:10:35.363Z,13.40
2022-08-08T04:13:18.105Z,13.40
2022-08-08T04:16:03.861Z,13.30
2022-08-08T04:18:39.403Z,13.30
2022-08-08T04:21:19.825Z,13.30
2022-08-08T04:24:05.346Z,13.30
2022-08-08T04:26:57.053Z,13.30
2022-08-08T04:29:33.342Z,13.30
2022-08-08T04:32:13.384Z,13.30
2022-08-08T04:34:58.898Z,13.30
2022-08-08T04:37:33.369Z,13.30
2022-08-08T04:40:07.821Z,13.20
2022-08-08T04:42:56.404Z,13.20
2022-08-08T04:45:27.698Z,13.20
2022-08-08T04:48:05.375Z,13.20
2022-08-08T04:50:38.495Z,13.20
2022-08-08T04:53:52.625Z,13.10
2022-08-08T04:56:01.539Z,13.10
2022-08-08T04:58:38.403Z,13.20
2022-08-08T05:01:10.975Z,13.20
2022-08-08T05:04:09.451Z,13.10
2022-08-08T05:06:41.522Z,13.30
2022-08-08T05:09:17.450Z,13.40
2022-08-08T05:11:56.819Z,13.50
2022-08-08T05:14:32.391Z,13.50
2022-08-08T05:17:02.147Z,13.60
2022-08-08T05:20:10.983Z,13.60
2022-08-08T05:22:33.697Z,13.70
2022-08-08T05:25:08.405Z,13.70
2022-08-08T05:27:41.489Z,13.80
2022-08-08T05:30:28.200Z,13.80
2022-08-08T05:32:58.427Z,13.90
2022-08-08T05:35:41.438Z,13.90
2022-08-08T05:38:30.522Z,14.00
2022-08-08T05:41:07.460Z,14.00
2022-08-08T05:43:39.260Z,14.00
2022-08-08T05:46:33.482Z,14.00
2022-08-08T05:49:10.904Z,14.10
2022-08-08T05:51:49.298Z,14.20
2022-08-08T05:54:26.754Z,14.20
2022-08-08T05:57:57.376Z,14.20
2022-08-08T06:00:22.915Z,14.40
2022-08-08T06:03:24.675Z,14.50
2022-08-08T06:06:06.482Z,14.70
2022-08-08T06:08:55.055Z,14.80
2022-08-08T06:11:32.527Z,15.00
2022-08-08T06:14:17.972Z,15.10
2022-08-08T06:16:47.089Z,15.20
2022-08-08T06:19:27.621Z,15.30
2022-08-08T06:21:57.996Z,15.50
2022-08-08T06:24:36.182Z,15.60
2022-08-08T06:27:06.503Z,15.70
2022-08-08T06:30:01.041Z,15.70
2022-08-08T06:32:31.953Z,15.80
2022-08-08T06:36:03.998Z,15.90
2022-08-08T06:38:09.273Z,16.00
2022-08-08T06:40:53.683Z,15.90
2022-08-08T06:43:28.584Z,16.00
2022-08-08T06:46:12.799Z,16.00
2022-08-08T06:48:42.508Z,16.20
2022-08-08T06:51:18.528Z,16.20
2022-08-08T06:53:51.266Z,16.30
2022-08-08T06:56:31.606Z,16.40
2022-08-08T06:58:59.717Z,16.50
2022-08-08T07:02:28.012Z,16.60
2022-08-08T07:04:45.412Z,16.70
2022-08-08T07:07:42.496Z,16.90
2022-08-08T07:10:12.708Z,17.00
2022-08-08T07:12:49.519Z,17.10
2022-08-08T07:15:41.174Z,17.20
2022-08-08T07:18:37.028Z,17.30
2022-08-08T07:21:18.907Z,17.40
2022-08-08T07:24:03.245Z,17.60
2022-08-08T07:26:36.250Z,17.70
2022-08-08T07:29:55.413Z,17.90
2022-08-08T07:32:00.874Z,17.90
2022-08-08T07:34:48.430Z,18.00
2022-08-08T07:37:27.149Z,18.10
2022-08-08T07:40:29.474Z,18.20
2022-08-08T07:43:08.850Z,18.20
2022-08-08T07:46:04.816Z,18.30
2022-08-08T07:48:32.829Z,18.30
2022-08-08T07:51:24.376Z,18.40
2022-08-08T07:54:15.981Z,18.50
2022-08-08T07:57:03.835Z,18.60
2022-08-08T07:59:51.570Z,18.60
2022-08-08T08:02:34.327Z,18.70
2022-08-08T08:05:26.286Z,18.90
2022-08-08T08:08:18.916Z,19.00
2022-08-08T08:10:58.629Z,19.10
2022-08-08T08:13:42.773Z,19.10
2022-08-08T08:16:33.582Z,19.10
2022-08-08T08:19:03.703Z,19.20
2022-08-08T08:21:57.328Z,19.30
2022-08-08T08:24:26.696Z,19.50
2022-08-08T08:27:08.377Z,19.70
2022-08-08T08:29:37.621Z,19.80
2022-08-08T08:32:32.010Z,20.00
2022-08-08T08:35:11.587Z,20.10
2022-08-08T08:38:14.636Z,20.20
2022-08-08T08:40:38.111Z,20.40
2022-08-08T08:43:16.761Z,20.50
2022-08-08T08:45:49.089Z,20.50
2022-08-08T08:48:27.611Z,20.50
2022-08-08T08:51:00.395Z,20.60
2022-08-08T08:53:56.036Z,20.70
2022-08-08T08:56:29.477Z,20.80
2022-08-08T08:59:05.757Z,20.90
2022-08-08T09:01:43.859Z,21.10
2022-08-08T09:04:32.176Z,21.30
2022-08-08T09:07:17.942Z,21.30
2022-08-08T09:09:58.382Z,21.50
2022-08-08T09:12:28.461Z,21.40
2022-08-08T09:15:06.206Z,21.60
2022-08-08T09:17:55.325Z,21.80
2022-08-08T09:22:01.643Z,21.90
2022-08-08T09:23:25.443Z,22.10
2022-08-08T09:26:07.667Z,22.10
2022-08-08T09:28:41.546Z,22.20
2022-08-08T09:31:24.038Z,22.30
2022-08-08T09:34:30.714Z,22.10
2022-08-08T09:37:34.118Z,22.20
2022-08-08T09:39:54.673Z,22.20
2022-08-08T09:42:31.652Z,22.40
2022-08-08T09:45:15.769Z,22.70
2022-08-08T09:48:11.448Z,22.90
2022-08-08T09:50:50.256Z,22.90
2022-08-08T09:53:53.290Z,22.90
2022-08-08T09:56:24.786Z,23.30
2022-08-08T09:59:20.009Z,23.40
2022-08-08T10:02:02.624Z,23.50
2022-08-08T10:04:47.996Z,23.70
2022-08-08T10:07:22.642Z,24.00
2022-08-08T10:10:01.907Z,23.80
2022-08-08T10:12:52.763Z,23.50
2022-08-08T10:15:30.699Z,23.60
2022-08-08T10:18:09.276Z,23.80
2022-08-08T10:20:58.268Z,23.70
2022-08-08T10:23:44.018Z,23.80
2022-08-08T10:26:52.085Z,24.20
2022-08-08T10:29:21.102Z,24.00
2022-08-08T10:32:22.701Z,23.60
2022-08-08T10:35:00.419Z,23.80
2022-08-08T10:37:37.695Z,23.80
2022-08-08T10:40:16.310Z,23.80
2022-08-08T10:42:55.733Z,24.00
2022-08-08T10:45:24.670Z,24.60
2022-08-08T10:48:05.803Z,24.70
2022-08-08T10:50:37.592Z,24.60
2022-08-08T10:53:14.737Z,24.40
2022-08-08T10:55:45.690Z,24.50
2022-08-08T10:58:25.718Z,24.70
2022-08-08T11:01:02.174Z,24.70
2022-08-08T11:04:01.207Z,24.70
2022-08-08T11:06:41.930Z,24.80
2022-08-08T11:09:32.335Z,25.10
2022-08-08T11:12:12.841Z,24.90
2022-08-08T11:15:00.781Z,24.90
2022-08-08T11:17:59.935Z,25.10
2022-08-08T11:20:27.899Z,25.00
2022-08-08T11:22:58.980Z,24.70
2022-08-08T11:25:52.324Z,24.90
2022-08-08T11:28:28.994Z,25.00
2022-08-08T11:31:09.765Z,25.00
2022-08-08T11:33:59.527Z,25.10
2022-08-08T11:36:36.549Z,25.10
2022-08-08T11:39:11.075Z,25.20
2022-08-08T11:41:51.777Z,25.40
2022-08-08T11:44:29.135Z,25.40
2022-08-08T11:47:12.982Z,25.20
2022-08-08T11:49:49.148Z,24.90
2022-08-08T11:52:30.601Z,24.90
2022-08-08T11:55:00.228Z,24.70
2022-08-08T11:57:36.772Z,24.90
2022-08-08T12:00:09.843Z,25.20
2022-08-08T12:02:56.829Z,25.40
2022-08-08T12:05:40.107Z,25.10
2022-08-08T12:08:21.787Z,25.40
2022-08-08T12:10:51.599Z,25.30
2022-08-08T12:13:33.300Z,25.50
2022-08-08T12:16:11.484Z,26.00
2022-08-08T12:18:55.803Z,26.40
2022-08-08T12:21:59.312Z,26.00
2022-08-08T12:24:30.837Z,25.50
2022-08-08T12:26:59.145Z,25.80
2022-08-08T12:29:41.307Z,26.00
2022-08-08T12:32:17.345Z,26.10
2022-08-08T12:35:13.483Z,25.90
2022-08-08T12:38:01.863Z,25.70
2022-08-08T12:40:57.117Z,25.80
2022-08-08T12:43:32.553Z,25.80
2022-08-08T12:46:07.850Z,25.90
2022-08-08T12:48:38.926Z,26.00
2022-08-08T12:51:26.839Z,25.80
2022-08-08T12:54:24.265Z,25.40
2022-08-08T12:57:00.840Z,25.90
2022-08-08T12:59:36.592Z,26.00
2022-08-08T13:02:30.072Z,26.00
2022-08-08T13:05:15.833Z,25.80
2022-08-08T13:08:09.837Z,25.60
2022-08-08T13:10:57.278Z,25.40
2022-08-08T13:13:37.685Z,24.90
2022-08-08T13:16:19.918Z,25.10
2022-08-08T13:18:57.569Z,25.30
2022-08-08T13:21:48.815Z,25.70
2022-08-08T13:24:41.987Z,25.90
2022-08-08T13:27:15.121Z,25.90
2022-08-08T13:29:58.889Z,25.30
2022-08-08T13:32:28.839Z,25.60
2022-08-08T13:35:05.867Z,25.60
2022-08-08T13:38:06.844Z,25.70
2022-08-08T13:40:46.118Z,25.60
2022-08-08T13:43:16.086Z,25.80
2022-08-08T13:45:51.902Z,25.40
2022-08-08T13:48:25.804Z,25.10
2022-08-08T13:51:24.803Z,25.20
2022-08-08T13:54:00.669Z,25.20
2022-08-08T13:56:59.632Z,24.90
2022-08-08T13:59:32.856Z,24.60
2022-08-08T14:02:12.445Z,24.80
2022-08-08T14:04:52.948Z,25.20
2022-08-08T14:07:38.016Z,25.40
2022-08-08T14:10:11.853Z,25.40
2022-08-08T14:12:52.924Z,25.30
2022-08-08T14:15:31.455Z,25.00
2022-08-08T14:18:36.331Z,24.90
2022-08-08T14:21:12.683Z,24.90
2022-08-08T14:24:04.144Z,25.00
2022-08-08T14:26:41.554Z,25.20
2022-08-08T14:29:30.139Z,25.70
2022-08-08T14:32:09.312Z,25.40
2022-08-08T14:34:48.931Z,25.40
2022-08-08T14:37:18.745Z,25.60
2022-08-08T14:40:05.633Z,25.60
2022-08-08T14:42:37.245Z,25.70
2022-08-08T14:46:03.237Z,25.70
2022-08-08T14:48:34.835Z,25.90
2022-08-08T14:51:17.834Z,25.70
2022-08-08T14:53:54.999Z,25.30
2022-08-08T14:56:31.961Z,25.30
2022-08-08T14:59:00.125Z,25.10
2022-08-08T15:01:41.124Z,25.10
2022-08-08T15:04:11.574Z,24.90
2022-08-08T15:07:00.966Z,24.50
2022-08-08T15:09:32.452Z,24.40
2022-08-08T15:12:06.989Z,24.50
2022-08-08T15:14:36.433Z,24.50
2022-08-08T15:17:13.003Z,24.70
2022-08-08T15:19:43.491Z,24.80
2022-08-08T15:22:34.002Z,24.80
2022-08-08T15:25:02.336Z,24.70
2022-08-08T15:28:03.402Z,24.70
2022-08-08T15:30:32.911Z,24.60
2022-08-08T15:33:08.990Z,24.40
2022-08-08T15:35:39.246Z,24.40
2022-08-08T15:38:13.985Z,24.40
2022-08-08T15:40:44.387Z,24.30
2022-08-08T15:43:35.003Z,24.30
2022-08-08T15:46:05.058Z,24.20
2022-08-08T15:48:41.006Z,24.30
2022-08-08T15:51:11.350Z,24.30
2022-08-08T15:53:51.026Z,24.40
2022-08-08T15:56:20.082Z,24.30
2022-08-08T15:58:55.010Z,24.30
2022-08-08T16:01:23.737Z,24.30
2022-08-08T16:04:17.004Z,24.30
2022-08-08T16:06:54.971Z,24.20
2022-08-08T16:13:04.326Z,24.20
2022-08-08T16:13:14.029Z,24.20
2022-08-08T16:15:14.035Z,24.10
2022-08-08T16:18:06.329Z,24.00
2022-08-08T16:20:40.053Z,24.20
2022-08-08T16:23:11.352Z,24.10
2022-08-08T16:25:54.512Z,23.90
2022-08-08T16:28:35.776Z,23.90
2022-08-08T16:31:12.221Z,24.00
2022-08-08T16:33:40.750Z,24.00
2022-08-08T16:36:19.479Z,24.00
2022-08-08T16:39:01.455Z,24.00
2022-08-08T16:41:50.424Z,23.90
2022-08-08T16:44:28.003Z,23.90
2022-08-08T16:47:40.025Z,23.90
2022-08-08T16:50:14.673Z,23.90
2022-08-08T16:55:04.081Z,23.90
2022-08-08T16:55:52.610Z,23.80
2022-08-08T16:58:34.342Z,23.90
2022-08-08T17:01:04.147Z,23.80
2022-08-08T17:04:00.219Z,23.80
2022-08-08T17:06:43.516Z,23.80
2022-08-08T17:09:34.965Z,23.80
2022-08-08T17:12:18.315Z,23.70
2022-08-08T17:15:17.933Z,23.60
2022-08-08T17:18:03.658Z,23.70
2022-08-08T17:20:40.066Z,23.70
2022-08-08T17:23:17.654Z,23.60
2022-08-08T17:26:05.961Z,23.60
2022-08-08T17:28:35.676Z,23.50
2022-08-08T17:31:44.387Z,23.50
2022-08-08T17:34:49.151Z,23.50
2022-08-08T17:37:00.321Z,23.50
2022-08-08T17:40:03.915Z,23.50
2022-08-08T17:42:27.116Z,23.50
2022-08-08T17:44:55.561Z,23.40
2022-08-08T17:47:40.526Z,23.50
2022-08-08T17:50:10.536Z,23.40
2022-08-08T17:52:47.749Z,23.40
2022-08-08T17:56:05.055Z,23.30
2022-08-08T17:58:12.165Z,23.20
2022-08-08T18:00:47.556Z,23.20
2022-08-08T18:03:24.212Z,23.20
2022-08-08T18:06:18.561Z,23.20
2022-08-08T18:08:56.959Z,23.10
2022-08-08T18:11:33.142Z,23.10
2022-08-08T18:14:06.667Z,23.00
2022-08-08T18:16:57.154Z,23.00
2022-08-08T18:19:30.903Z,23.00
2022-08-08T18:22:07.162Z,22.90
2022-08-08T18:24:55.274Z,22.90
2022-08-08T18:27:31.011Z,22.90
2022-08-08T18:30:00.592Z,22.80
2022-08-08T18:32:35.143Z,22.70
2022-08-08T18:35:16.595Z,22.60
2022-08-08T18:37:51.208Z,22.60
2022-08-08T18:40:19.536Z,22.60
2022-08-08T18:43:15.698Z,22.50
2022-08-08T18:46:53.357Z,22.50
2022-08-08T18:48:41.163Z,22.40
2022-08-08T18:51:33.432Z,22.30
2022-08-08T18:54:13.737Z,22.30
2022-08-08T18:56:51.334Z,22.30
2022-08-08T18:59:28.982Z,22.20
2022-08-08T19:02:28.451Z,22.10
2022-08-08T19:04:59.183Z,22.00
2022-08-08T19:07:37.560Z,22.00
2022-08-08T19:10:18.208Z,21.90
2022-08-08T19:12:53.062Z,21.80
2022-08-08T19:15:33.706Z,21.80
2022-08-08T19:18:33.304Z,21.70
2022-08-08T19:21:01.376Z,21.60
2022-08-08T19:23:29.491Z,21.50
2022-08-08T19:26:29.144Z,21.40
2022-08-08T19:28:58.238Z,21.40
2022-08-08T19:31:35.043Z,21.30
2022-08-08T19:34:35.818Z,21.30
2022-08-08T19:37:01.228Z,21.20
2022-08-08T19:39:30.696Z,21.10
2022-08-08T19:42:11.246Z,21.00
2022-08-08T19:44:46.022Z,21.00
2022-08-08T19:47:23.927Z,20.90
2022-08-08T19:50:00.443Z,20.90
2022-08-08T19:52:37.275Z,20.80
2022-08-08T19:55:11.370Z,20.80
2022-08-08T19:57:47.297Z,20.70
2022-08-08T20:00:29.894Z,20.70
2022-08-08T20:03:15.014Z,20.60
2022-08-08T20:06:14.443Z,20.50
2022-08-08T20:08:57.262Z,20.50
2022-08-08T20:11:25.687Z,20.40
2022-08-08T20:14:12.079Z,20.40
2022-08-08T20:16:50.676Z,20.30
2022-08-08T20:19:34.691Z,20.30
2022-08-08T20:22:13.037Z,20.20
2022-08-08T20:24:56.245Z,20.20
2022-08-08T20:27:43.866Z,20.20
2022-08-08T20:30:53.712Z,20.20
2022-08-08T20:35:57.170Z,20.10
2022-08-08T20:38:36.297Z,20.00
2022-08-08T20:41:05.879Z,20.00
2022-08-08T20:43:51.272Z,20.00
2022-08-08T20:46:27.295Z,19.90
2022-08-08T20:48:58.291Z,19.80
2022-08-08T20:51:35.279Z,19.80
2022-08-08T20:54:14.030Z,19.70
2022-08-08T20:57:17.122Z,19.70
2022-08-08T20:59:45.370Z,19.70
2022-08-08T21:02:25.318Z,19.60
2022-08-08T21:05:03.318Z,19.60
2022-08-08T21:08:07.710Z,19.50
2022-08-08T21:10:42.318Z,19.50
2022-08-08T21:13:10.413Z,19.40
2022-08-08T21:16:06.000Z,19.40
2022-08-08T21:18:33.752Z,19.30
2022-08-08T21:21:08.327Z,19.30
2022-08-08T21:24:03.168Z,19.30
2022-08-08T21:26:33.367Z,19.20
2022-08-08T21:29:02.515Z,19.20
2022-08-08T21:31:53.295Z,19.10
2022-08-08T21:34:25.410Z,19.10
2022-08-08T21:37:11.467Z,19.00
2022-08-08T21:39:57.162Z,19.00
2022-08-08T21:42:33.320Z,19.00
2022-08-08T21:45:44.060Z,18.90
2022-08-08T21:48:02.090Z,18.80
2022-08-08T21:50:38.951Z,18.80
2022-08-08T21:54:32.001Z,18.80
2022-08-08T21:56:26.659Z,18.70
2022-08-08T21:58:58.366Z,18.70
2022-08-08T22:01:38.807Z,18.70
2022-08-08T22:04:17.423Z,18.60
2022-08-08T22:06:51.584Z,18.60
2022-08-08T22:09:37.661Z,18.50
2022-08-08T22:12:10.007Z,18.50
2022-08-08T22:14:52.542Z,18.40
2022-08-08T22:17:20.682Z,18.40
2022-08-08T22:20:12.943Z,18.30
2022-08-08T22:22:44.558Z,18.30
2022-08-08T22:25:26.401Z,18.20
2022-08-08T22:29:04.823Z,18.30
2022-08-08T22:31:06.390Z,18.20
2022-08-08T22:34:13.740Z,18.10
2022-08-08T22:36:32.399Z,18.10
2022-08-08T22:39:06.666Z,18.10
2022-08-08T22:41:41.379Z,18.10
2022-08-08T22:44:09.474Z,18.00
2022-08-08T22:46:46.447Z,18.00
2022-08-08T22:49:20.210Z,18.00
2022-08-08T22:51:55.413Z,17.90
2022-08-08T22:54:34.035Z,17.90
2022-08-08T22:57:20.406Z,17.80
2022-08-08T22:59:59.377Z,17.80
2022-08-08T23:02:36.404Z,17.80
2022-08-08T23:05:13.699Z,17.70
2022-08-08T23:07:57.656Z,17.70
2022-08-08T23:10:27.615Z,17.60
2022-08-08T23:13:02.411Z,17.60
2022-08-08T23:16:41.522Z,17.60
2022-08-08T23:18:29.451Z,17.50
2022-08-08T23:21:04.337Z,17.50
2022-08-08T23:23:48.323Z,17.50
2022-08-08T23:26:16.655Z,17.50
2022-08-08T23:28:52.455Z,17.50
2022-08-08T23:31:20.535Z,17.40
2022-08-08T23:34:17.000Z,17.40
2022-08-08T23:36:44.506Z,17.40
2022-08-08T23:39:19.505Z,17.40
2022-08-08T23:41:49.579Z,17.40
2022-08-08T23:44:24.454Z,17.30
2022-08-08T23:49:01.453Z,17.30
2022-08-08T23:50:01.061Z,17.30
2022-08-08T23:52:32.165Z,17.20
2022-08-08T23:55:22.898Z,17.20
2022-08-08T23:57:53.083Z,17.10
